Time;durP1;ratioP1;P1;durP2;ratioP2;P2;SDS_P1;SDS_P2;PMS_P1;PMS_P2;Temp;Humidity;BMP_temperature;BMP_pressure;BME280_temperature;BME280_humidity;BME280_pressure;Samples;Min_cycle;Max_cycle;Signal;HPM_P1;HPM_P2
2022/01/23 00:00:15;;;;;;;10.37;8.90;;;6.10;99.90;;;;;;4994763;28;20485;-60
2022/01/23 00:02:41;;;;;;;10.80;7.90;;;6.10;99.90;;;;;;4995479;28;20445;-59
2022/01/23 00:05:08;;;;;;;9.00;7.37;;;6.10;99.90;;;;;;4995155;28;20404;-61
2022/01/23 00:07:34;;;;;;;9.80;8.03;;;6.30;99.90;;;;;;4995436;28;20214;-60
2022/01/23 00:10:01;;;;;;;9.70;7.90;;;6.40;99.90;;;;;;4994631;28;20806;-60
2022/01/23 00:12:31;;;;;;;10.30;7.67;;;6.50;99.90;;;;;;4994700;28;20424;-60
2022/01/23 00:17:40;;;;;;;8.90;7.60;;;6.50;99.90;;;;;;4995028;28;20387;-61
2022/01/23 00:20:09;;;;;;;9.73;7.30;;;6.50;99.90;;;;;;4995114;28;20803;-60
2022/01/23 00:22:48;;;;;;;8.97;7.73;;;6.60;99.90;;;;;;4994630;28;20693;-59
2022/01/23 00:30:45;;;;;;;8.40;7.53;;;6.40;99.90;;;;;;4994686;28;20450;-60
2022/01/23 00:33:12;;;;;;;8.00;6.77;;;6.50;99.90;;;;;;4994792;28;20462;-59
2022/01/23 00:35:40;;;;;;;9.93;7.83;;;6.50;99.90;;;;;;4995342;28;20405;-60
2022/01/23 00:38:07;;;;;;;8.50;7.60;;;6.60;99.90;;;;;;4995049;28;20433;-60
2022/01/23 00:40:34;;;;;;;8.47;7.50;;;6.60;99.90;;;;;;4994615;28;20480;-60
2022/01/23 00:43:01;;;;;;;7.90;7.10;;;6.50;99.90;;;;;;4995027;28;20456;-59
2022/01/23 00:48:05;;;;;;;10.00;7.43;;;6.70;99.90;;;;;;4994869;28;20792;-60
2022/01/23 00:50:40;;;;;;;8.90;6.87;;;6.70;99.90;;;;;;4994822;28;20423;-60
2022/01/23 00:53:09;;;;;;;8.23;7.17;;;6.60;99.90;;;;;;4994256;28;20489;-60
2022/01/23 00:55:39;;;;;;;7.80;7.00;;;6.60;99.90;;;;;;4994168;28;20412;-60
2022/01/23 00:58:05;;;;;;;8.23;6.97;;;6.70;99.90;;;;;;4994557;28;20457;-59
2022/01/23 01:00:31;;;;;;;8.57;7.50;;;6.80;99.90;;;;;;4994382;28;20487;-60
2022/01/23 01:02:58;;;;;;;8.40;7.10;;;6.70;99.90;;;;;;4994148;28;20309;-60
2022/01/23 01:05:26;;;;;;;10.43;7.63;;;6.80;99.90;;;;;;4994140;28;20412;-58
2022/01/23 01:07:54;;;;;;;9.33;6.73;;;6.80;99.90;;;;;;4994082;28;20404;-60
2022/01/23 01:10:25;;;;;;;8.73;7.80;;;6.80;99.90;;;;;;4993789;28;20404;-60
2022/01/23 01:12:55;;;;;;;9.80;8.53;;;6.80;99.90;;;;;;4994297;28;20433;-60
2022/01/23 01:31:30;;;;;;;7.43;6.43;;;6.60;99.90;;;;;;4994017;28;20919;-60
2022/01/23 01:34:03;;;;;;;8.40;6.80;;;6.50;99.90;;;;;;4993973;28;20404;-60
2022/01/23 01:36:49;;;;;;;7.97;6.83;;;6.60;99.90;;;;;;4994163;28;20396;-60
2022/01/23 01:39:18;;;;;;;8.00;6.37;;;6.60;99.90;;;;;;4993573;28;20424;-66
2022/01/23 01:41:45;;;;;;;10.43;7.60;;;6.60;99.90;;;;;;4993606;28;20482;-60
2022/01/23 01:44:11;;;;;;;8.93;6.43;;;6.70;99.90;;;;;;4989917;28;20513;-59
2022/01/23 01:46:39;;;;;;;10.03;8.03;;;6.70;99.90;;;;;;5002142;28;20759;-61
2022/01/23 01:49:06;;;;;;;9.90;7.43;;;6.70;99.90;;;;;;4993577;28;20432;-60
2022/01/23 01:51:33;;;;;;;9.30;7.20;;;6.80;99.90;;;;;;4994013;28;20447;-60
2022/01/23 01:54:14;;;;;;;8.30;7.43;;;6.80;99.90;;;;;;4994135;28;20885;-60
2022/01/23 02:10:29;;;;;;;12.57;8.03;;;6.60;99.90;;;;;;5036424;28;20421;-61
2022/01/23 02:15:44;;;;;;;10.20;8.73;;;6.60;99.90;;;;;;5036717;28;20414;-60
2022/01/23 02:51:10;;;;;;;10.43;7.77;;;6.60;99.90;;;;;;5036618;28;20387;-60
2022/01/23 02:54:27;;;;;;;11.30;8.53;;;6.50;99.90;;;;;;5035987;28;20472;-60
2022/01/23 02:56:32;;;;;;;12.37;8.33;;;6.40;99.90;;;;;;5024871;28;20525;-60
2022/01/23 02:59:00;;;;;;;12.77;9.50;;;6.30;99.90;;;;;;5035406;28;20838;-60
2022/01/23 03:01:31;;;;;;;15.37;9.67;;;6.30;99.90;;;;;;5036557;28;20501;-60
2022/01/23 03:04:02;;;;;;;11.50;8.80;;;6.40;99.90;;;;;;5035862;28;20451;-60
2022/01/23 03:30:17;;;;;;;14.57;10.80;;;6.50;99.90;;;;;;5015480;28;20420;-60
2022/01/23 03:32:47;;;;;;;13.20;9.80;;;6.50;99.90;;;;;;5015633;28;20387;-60
2022/01/23 03:35:14;;;;;;;11.90;9.67;;;6.60;99.90;;;;;;5015215;28;20402;-59
2022/01/23 03:37:39;;;;;;;16.00;11.60;;;6.60;99.90;;;;;;5015455;28;20396;-60
2022/01/23 03:40:06;;;;;;;15.30;10.80;;;6.50;99.90;;;;;;5015012;28;20786;-58
2022/01/23 03:42:35;;;;;;;13.53;10.73;;;6.50;99.90;;;;;;5015065;28;20231;-60
2022/01/23 03:47:37;;;;;;;14.03;11.67;;;6.50;99.90;;;;;;5015420;28;20455;-60
2022/01/23 03:50:05;;;;;;;14.10;10.77;;;6.50;99.90;;;;;;5014871;28;20423;-60
2022/01/23 03:52:31;;;;;;;16.10;11.50;;;6.50;99.90;;;;;;5014791;28;20916;-60
2022/01/23 03:54:56;;;;;;;14.70;11.07;;;6.50;99.90;;;;;;5014730;28;20417;-60
2022/01/23 03:57:22;;;;;;;16.47;12.53;;;6.40;99.90;;;;;;5014869;28;20176;-60
2022/01/23 03:59:48;;;;;;;15.57;11.57;;;6.40;99.90;;;;;;5027439;28;20219;-58
2022/01/23 04:02:14;;;;;;;14.70;10.97;;;6.40;99.90;;;;;;5034576;28;20184;-60
2022/01/23 04:04:41;;;;;;;14.30;11.10;;;6.50;99.90;;;;;;5034815;28;20247;-60
2022/01/23 04:07:11;;;;;;;14.30;10.50;;;6.60;99.90;;;;;;5034409;28;20535;-59
2022/01/23 04:09:38;;;;;;;12.47;9.90;;;6.70;99.90;;;;;;5034315;28;20441;-60
2022/01/23 04:12:05;;;;;;;14.10;10.50;;;6.70;99.90;;;;;;5034189;28;20398;-60
2022/01/23 04:14:33;;;;;;;16.30;11.70;;;6.60;99.90;;;;;;5034223;28;20417;-60
2022/01/23 04:59:50;;;;;;;17.30;12.30;;;6.10;99.90;;;;;;5025909;28;20530;-60
2022/01/23 05:05:00;;;;;;;17.20;12.47;;;6.20;99.90;;;;;;5034009;28;20390;-58
2022/01/23 05:07:28;;;;;;;14.17;11.10;;;6.30;99.90;;;;;;5033652;28;20424;-60
2022/01/23 05:09:54;;;;;;;17.20;13.47;;;6.30;99.90;;;;;;5033457;28;20458;-60
2022/01/23 05:12:27;;;;;;;24.23;16.17;;;6.30;99.90;;;;;;5033132;28;20441;-57
2022/01/23 05:14:53;;;;;;;20.90;16.77;;;6.30;99.90;;;;;;5032960;28;20776;-59
2022/01/23 05:17:19;;;;;;;20.50;15.80;;;6.20;99.90;;;;;;5033554;28;20485;-58
2022/01/23 05:19:45;;;;;;;24.30;15.40;;;6.20;99.90;;;;;;5033437;28;20825;-60
2022/01/23 05:22:33;;;;;;;18.00;13.47;;;6.30;99.90;;;;;;5033619;28;20468;-60
2022/01/23 05:25:15;;;;;;;19.70;13.83;;;6.40;99.90;;;;;;5031998;28;20206;-58
2022/01/23 05:27:41;;;;;;;19.97;14.43;;;6.40;99.90;;;;;;5033323;28;20440;-59
2022/01/23 05:30:07;;;;;;;23.27;16.00;;;6.40;99.90;;;;;;5018006;28;20835;-60
2022/01/23 05:32:37;;;;;;;23.40;16.47;;;6.30;99.90;;;;;;5013538;28;20184;-62
2022/01/23 05:35:05;;;;;;;16.40;13.20;;;6.30;99.90;;;;;;5013260;28;20418;-59
2022/01/23 05:37:32;;;;;;;20.47;14.70;;;6.20;99.90;;;;;;5013240;28;20437;-60
2022/01/23 05:39:58;;;;;;;18.97;13.60;;;6.20;99.90;;;;;;5012260;28;20817;-59
2022/01/23 05:42:23;;;;;;;16.80;12.50;;;6.20;99.90;;;;;;5013239;28;20455;-60
2022/01/23 05:44:49;;;;;;;17.43;14.57;;;6.20;99.90;;;;;;5013305;28;20225;-60
2022/01/23 05:47:15;;;;;;;18.10;13.60;;;6.20;99.90;;;;;;5013240;28;20196;-60
2022/01/23 05:49:40;;;;;;;18.20;13.80;;;6.20;99.90;;;;;;5013165;28;20220;-61
2022/01/23 05:52:06;;;;;;;17.40;14.17;;;6.20;99.90;;;;;;5013197;28;20168;-59
2022/01/23 05:54:32;;;;;;;18.00;14.13;;;6.20;99.90;;;;;;5013349;28;20637;-60
2022/01/23 05:56:58;;;;;;;16.40;12.97;;;6.20;99.90;;;;;;5012887;28;20395;-61
2022/01/23 05:59:23;;;;;;;19.47;13.80;;;6.40;99.90;;;;;;5022111;28;20843;-61
2022/01/23 06:01:54;;;;;;;17.07;14.27;;;6.40;99.90;;;;;;5033104;28;20172;-58
2022/01/23 06:04:20;;;;;;;17.40;13.13;;;6.40;99.90;;;;;;5033020;28;20683;-60
2022/01/23 06:06:47;;;;;;;18.37;13.17;;;6.40;99.90;;;;;;5033097;28;20402;-59
2022/01/23 06:09:12;;;;;;;16.40;13.83;;;6.40;99.90;;;;;;5032861;28;20771;-61
2022/01/23 06:11:38;;;;;;;21.07;14.73;;;6.40;99.90;;;;;;5032446;28;20429;-60
2022/01/23 06:14:04;;;;;;;23.67;16.93;;;6.40;99.90;;;;;;5032918;28;20422;-61
2022/01/23 06:16:30;;;;;;;19.93;15.93;;;6.30;99.90;;;;;;5032871;28;20180;-59
2022/01/23 06:18:55;;;;;;;21.47;16.40;;;6.30;99.90;;;;;;5032884;28;20594;-61
2022/01/23 06:21:22;;;;;;;19.30;15.57;;;6.20;99.90;;;;;;5032573;28;20164;-60
2022/01/23 06:23:55;;;;;;;19.57;14.73;;;6.20;99.90;;;;;;5032767;28;20230;-60
2022/01/23 06:26:22;;;;;;;21.03;15.13;;;6.10;99.90;;;;;;5032386;28;20430;-60
2022/01/23 06:28:55;;;;;;;20.73;15.43;;;6.10;99.90;;;;;;5032985;28;20441;-60
2022/01/23 06:31:20;;;;;;;21.90;16.47;;;6.10;99.90;;;;;;5032238;28;20893;-60
2022/01/23 06:33:46;;;;;;;18.30;14.80;;;6.20;99.90;;;;;;5032711;28;20496;-61
2022/01/23 06:36:12;;;;;;;21.20;15.57;;;6.20;99.90;;;;;;5032496;28;20161;-61
2022/01/23 06:38:38;;;;;;;18.63;14.70;;;6.20;99.90;;;;;;5032341;28;20440;-61
2022/01/23 06:41:04;;;;;;;20.50;14.27;;;6.10;99.90;;;;;;5032400;28;20164;-60
2022/01/23 06:43:30;;;;;;;17.63;12.90;;;6.10;99.90;;;;;;5032361;28;20545;-60
2022/01/23 06:45:55;;;;;;;19.93;14.30;;;6.20;99.90;;;;;;5032107;28;20173;-60
2022/01/23 06:48:21;;;;;;;22.03;14.90;;;6.30;99.90;;;;;;5032296;28;20533;-60
2022/01/23 06:50:47;;;;;;;20.40;13.60;;;6.30;99.90;;;;;;5032948;28;20167;-58
2022/01/23 06:53:12;;;;;;;16.60;13.47;;;6.40;99.90;;;;;;5035881;28;20174;-58
2022/01/23 06:55:38;;;;;;;23.10;17.20;;;6.40;99.90;;;;;;5035832;28;20221;-61
2022/01/23 06:58:05;;;;;;;19.17;14.33;;;6.40;99.90;;;;;;5036017;28;20621;-60
2022/01/23 07:00:32;;;;;;;16.83;12.97;;;6.30;99.90;;;;;;5035256;28;20454;-60
2022/01/23 07:02:59;;;;;;;19.67;14.77;;;6.30;99.90;;;;;;5035922;28;20676;-60
2022/01/23 07:05:24;;;;;;;21.00;15.30;;;6.30;99.90;;;;;;5035722;28;20410;-59
2022/01/23 07:07:50;;;;;;;25.40;18.57;;;6.30;99.90;;;;;;5035640;28;20413;-60
2022/01/23 07:10:16;;;;;;;21.70;17.20;;;6.20;99.90;;;;;;5035551;28;20187;-61
2022/01/23 07:12:42;;;;;;;27.77;19.23;;;6.20;99.90;;;;;;5035281;28;20176;-61
2022/01/23 07:15:08;;;;;;;26.70;19.23;;;6.20;99.90;;;;;;5035451;28;20417;-61
2022/01/23 07:17:42;;;;;;;19.10;14.90;;;6.20;99.90;;;;;;5036304;28;20415;-60
2022/01/23 07:20:08;;;;;;;22.10;16.63;;;6.30;99.90;;;;;;5035602;28;20422;-61
2022/01/23 07:22:34;;;;;;;22.53;15.10;;;6.30;99.90;;;;;;5035305;28;20871;-61
2022/01/23 07:25:02;;;;;;;21.87;16.10;;;6.20;99.90;;;;;;5035345;28;20399;-61
2022/01/23 07:27:32;;;;;;;20.80;15.70;;;6.20;99.90;;;;;;5035066;28;20462;-60
2022/01/23 07:29:57;;;;;;;22.97;14.63;;;6.20;99.90;;;;;;5035174;28;20438;-59
2022/01/23 07:32:23;;;;;;;21.80;15.97;;;6.10;99.90;;;;;;5020947;28;20931;-61
2022/01/23 07:34:48;;;;;;;24.37;15.80;;;6.10;99.90;;;;;;5015361;28;20176;-60
2022/01/23 07:37:15;;;;;;;21.63;14.90;;;6.10;99.90;;;;;;5015248;28;20172;-60
2022/01/23 07:39:41;;;;;;;24.07;16.40;;;6.10;99.90;;;;;;5015662;28;20196;-60
2022/01/23 07:42:07;;;;;;;21.13;16.10;;;6.10;99.90;;;;;;5015062;28;20407;-60
2022/01/23 07:44:32;;;;;;;20.87;16.07;;;6.20;99.90;;;;;;5015087;28;20463;-60
2022/01/23 07:46:58;;;;;;;21.67;15.47;;;6.20;99.90;;;;;;5015299;28;20421;-59
2022/01/23 07:49:24;;;;;;;22.57;16.07;;;6.30;99.90;;;;;;5015105;28;20530;-60
2022/01/23 07:51:50;;;;;;;23.77;17.47;;;6.40;99.90;;;;;;5015711;28;20176;-59
2022/01/23 07:54:15;;;;;;;25.60;18.70;;;6.30;99.90;;;;;;5015149;28;20172;-58
2022/01/23 07:56:42;;;;;;;21.63;17.10;;;6.30;99.90;;;;;;5015018;28;20481;-59
2022/01/23 07:59:10;;;;;;;22.50;16.83;;;6.20;99.90;;;;;;5044346;22;20228;-60
2022/01/23 08:01:39;;;;;;;20.10;15.53;;;6.20;99.90;;;;;;5034328;28;20822;-60
2022/01/23 08:04:06;;;;;;;21.30;15.03;;;6.20;99.90;;;;;;5033348;28;20464;-60
2022/01/23 08:06:33;;;;;;;22.67;17.07;;;6.20;99.90;;;;;;5034998;28;20721;-61
2022/01/23 08:08:59;;;;;;;23.47;17.37;;;6.30;99.90;;;;;;5034745;28;20422;-60
2022/01/23 08:11:25;;;;;;;25.00;17.23;;;6.40;99.90;;;;;;5034889;28;20409;-60
2022/01/23 08:13:50;;;;;;;22.40;17.10;;;6.40;99.90;;;;;;5034580;28;20171;-60
2022/01/23 08:16:16;;;;;;;23.60;17.23;;;6.40;99.90;;;;;;5034889;28;20233;-61
2022/01/23 08:18:42;;;;;;;23.00;16.60;;;6.40;99.90;;;;;;5034561;28;20167;-60
2022/01/23 08:21:08;;;;;;;23.50;15.73;;;6.40;99.90;;;;;;5034589;28;20171;-61
2022/01/23 08:23:34;;;;;;;25.03;14.87;;;6.40;99.90;;;;;;5016906;28;20975;-58
2022/01/23 08:25:59;;;;;;;26.83;19.30;;;6.40;99.90;;;;;;5034724;28;20754;-59
2022/01/23 08:28:25;;;;;;;23.33;16.20;;;6.40;99.90;;;;;;5034359;28;20426;-61
2022/01/23 08:30:51;;;;;;;21.67;15.30;;;6.50;99.90;;;;;;4999798;28;20759;-61
2022/01/23 08:33:17;;;;;;;21.40;15.50;;;6.50;99.90;;;;;;4995248;28;20165;-61
2022/01/23 08:35:45;;;;;;;24.70;17.87;;;6.60;99.90;;;;;;4995299;28;20765;-61
2022/01/23 08:38:13;;;;;;;21.97;16.90;;;6.60;99.90;;;;;;4994812;28;20169;-61
2022/01/23 08:43:08;;;;;;;24.60;18.60;;;6.80;99.90;;;;;;4994366;28;20910;-61
2022/01/23 08:45:34;;;;;;;27.30;20.27;;;6.90;99.90;;;;;;4994510;28;20463;-61
2022/01/23 08:47:59;;;;;;;27.00;19.40;;;6.90;99.90;;;;;;4977287;28;20555;-61
2022/01/23 08:50:25;;;;;;;25.07;18.33;;;7.10;99.90;;;;;;4994252;28;20436;-61
2022/01/23 08:52:51;;;;;;;33.93;23.07;;;7.10;99.90;;;;;;4994216;28;20179;-61
2022/01/23 08:55:18;;;;;;;26.63;19.27;;;7.20;99.90;;;;;;4994349;28;20180;-59
2022/01/23 08:57:44;;;;;;;26.23;19.90;;;7.30;99.90;;;;;;4976528;28;20428;-61
2022/01/23 09:00:10;;;;;;;23.83;17.80;;;7.20;99.90;;;;;;4993908;28;20462;-61
2022/01/23 09:02:36;;;;;;;31.27;21.67;;;7.20;99.90;;;;;;4993943;28;20193;-60
2022/01/23 09:05:01;;;;;;;26.70;19.43;;;7.20;99.90;;;;;;4993777;28;20466;-60
2022/01/23 09:07:27;;;;;;;21.97;18.10;;;7.10;99.90;;;;;;4994369;28;20252;-60
2022/01/23 09:10:00;;;;;;;24.57;20.10;;;7.10;99.90;;;;;;4993906;28;20195;-60
2022/01/23 09:15:04;;;;;;;27.80;20.23;;;7.40;99.90;;;;;;4993532;28;20461;-60
2022/01/23 09:17:29;;;;;;;25.00;19.80;;;7.50;99.90;;;;;;4993885;28;20844;-59
2022/01/23 09:19:55;;;;;;;26.90;19.80;;;7.50;99.90;;;;;;4993419;28;20478;-60
2022/01/23 09:22:21;;;;;;;29.67;20.07;;;7.40;99.90;;;;;;4993770;28;20547;-60
2022/01/23 09:24:46;;;;;;;24.13;19.27;;;7.50;99.90;;;;;;4993600;28;20174;-60
2022/01/23 09:27:19;;;;;;;23.80;18.67;;;7.60;99.90;;;;;;4993761;28;20170;-60
2022/01/23 09:29:48;;;;;;;31.13;22.63;;;7.80;99.90;;;;;;4993341;28;20268;-59
2022/01/23 09:32:16;;;;;;;23.93;18.07;;;7.50;99.90;;;;;;4994465;28;20411;-60
2022/01/23 09:34:43;;;;;;;24.30;18.00;;;7.30;99.90;;;;;;4993709;28;20456;-60
2022/01/23 09:37:11;;;;;;;24.50;19.63;;;7.20;99.90;;;;;;4995270;28;20400;-58
2022/01/23 09:39:40;;;;;;;21.57;17.50;;;7.30;99.90;;;;;;4993887;28;20797;-60
2022/01/23 09:42:28;;;;;;;29.40;20.13;;;7.30;99.90;;;;;;4993595;28;20411;-60
2022/01/23 09:44:59;;;;;;;24.00;17.70;;;7.60;99.90;;;;;;4993672;28;20393;-59
2022/01/23 09:47:26;;;;;;;23.50;17.70;;;7.70;99.90;;;;;;4974784;28;20416;-60
2022/01/23 09:49:53;;;;;;;23.20;19.03;;;7.90;99.90;;;;;;4993731;28;20920;-60
2022/01/23 09:52:21;;;;;;;25.17;20.00;;;7.90;99.90;;;;;;5010906;28;20424;-59
2022/01/23 09:54:56;;;;;;;26.00;21.23;;;8.20;99.90;;;;;;5012821;28;20413;-60
2022/01/23 09:57:25;;;;;;;24.57;19.27;;;8.00;99.90;;;;;;5012351;28;20916;-60
2022/01/23 09:59:55;;;;;;;23.20;18.93;;;8.20;99.90;;;;;;5011894;28;20535;-61
2022/01/23 10:02:23;;;;;;;23.97;18.63;;;8.20;99.90;;;;;;5012935;28;20497;-59
2022/01/23 10:04:49;;;;;;;22.00;17.77;;;8.30;99.90;;;;;;5012246;28;20424;-59
2022/01/23 10:07:16;;;;;;;26.07;17.40;;;7.80;99.90;;;;;;5013060;28;20416;-60
2022/01/23 10:09:42;;;;;;;28.00;19.93;;;7.50;99.90;;;;;;5013162;28;20433;-60
2022/01/23 10:12:08;;;;;;;19.97;16.87;;;7.40;99.90;;;;;;5013647;28;20413;-60
2022/01/23 10:14:35;;;;;;;24.80;20.07;;;7.50;99.90;;;;;;5012934;28;20498;-60
2022/01/23 10:17:02;;;;;;;25.80;18.23;;;7.50;99.90;;;;;;5013303;28;20408;-60
2022/01/23 10:19:28;;;;;;;23.80;19.27;;;7.30;99.90;;;;;;5012508;28;20434;-59
2022/01/23 10:21:54;;;;;;;20.93;17.50;;;7.40;99.90;;;;;;5012937;28;20503;-60
2022/01/23 10:24:19;;;;;;;24.10;18.43;;;7.50;99.90;;;;;;5012935;28;20205;-60
2022/01/23 10:26:47;;;;;;;22.53;17.87;;;7.50;99.90;;;;;;5015444;28;20409;-60
2022/01/23 10:29:16;;;;;;;20.60;17.67;;;7.70;99.90;;;;;;5017155;28;20195;-60
2022/01/23 10:32:02;;;;;;;16.37;13.60;;;7.90;99.90;;;;;;5016664;28;20408;-60
2022/01/23 10:34:41;;;;;;;18.57;15.20;;;8.10;99.90;;;;;;5016024;28;20420;-60
2022/01/23 10:37:07;;;;;;;18.63;15.60;;;7.90;99.90;;;;;;5016662;28;20479;-60
2022/01/23 10:39:45;;;;;;;17.03;14.03;;;7.70;99.90;;;;;;5016712;28;20433;-60
2022/01/23 10:47:52;;;;;;;19.63;14.93;;;7.80;99.90;;;;;;5016081;28;20387;-60
2022/01/23 10:50:22;;;;;;;17.77;13.53;;;7.70;99.90;;;;;;5016143;28;20507;-61
2022/01/23 10:52:50;;;;;;;16.47;13.40;;;7.70;99.90;;;;;;5010044;28;20893;-60
2022/01/23 10:55:24;;;;;;;17.93;13.10;;;7.60;99.90;;;;;;5024783;28;20457;-60
2022/01/23 10:57:54;;;;;;;15.57;13.73;;;7.50;99.90;;;;;;5016123;28;20448;-60
2022/01/23 11:00:25;;;;;;;13.40;11.67;;;7.50;99.90;;;;;;5012561;28;20561;-59
2022/01/23 11:02:52;;;;;;;15.10;13.17;;;7.50;99.90;;;;;;4996560;28;20877;-60
2022/01/23 11:05:19;;;;;;;13.20;11.47;;;7.60;99.90;;;;;;5003873;28;20513;-60
2022/01/23 11:07:48;;;;;;;18.37;11.70;;;7.90;99.90;;;;;;5006344;28;20505;-60
2022/01/23 11:10:19;;;;;;;14.10;11.80;;;8.00;99.90;;;;;;4997484;28;20670;-59
2022/01/23 11:18:06;;;;;;;17.63;13.40;;;8.00;99.90;;;;;;4999189;28;20441;-60
2022/01/23 11:20:39;;;;;;;15.83;13.40;;;8.10;99.90;;;;;;5003300;28;20437;-60
2022/01/23 11:23:11;;;;;;;20.80;13.87;;;8.00;99.90;;;;;;4986825;28;20556;-60
2022/01/23 11:25:37;;;;;;;17.10;14.20;;;8.20;99.90;;;;;;5003420;28;20497;-60
2022/01/23 11:28:03;;;;;;;16.93;14.00;;;8.00;99.90;;;;;;4996709;28;20425;-60
2022/01/23 11:30:58;;;;;;;15.30;13.53;;;7.70;99.90;;;;;;5015336;28;20433;-60
2022/01/23 11:33:26;;;;;;;12.87;11.47;;;8.00;99.90;;;;;;5002031;28;20926;-60
2022/01/23 11:35:52;;;;;;;18.23;13.57;;;8.20;99.90;;;;;;5015227;28;20487;-60
2022/01/23 11:38:21;;;;;;;15.40;13.57;;;8.00;99.90;;;;;;5003386;28;20446;-60
2022/01/23 11:54:47;;;;;;;17.20;13.10;;;7.20;99.90;;;;;;4995883;28;20513;-60
2022/01/23 11:57:31;;;;;;;17.20;14.10;;;7.40;99.90;;;;;;4995444;28;20477;-61
2022/01/23 11:59:59;;;;;;;19.80;15.03;;;7.60;99.90;;;;;;4995229;28;20967;-60
2022/01/23 12:02:27;;;;;;;17.43;14.00;;;7.90;99.90;;;;;;4995300;28;20490;-60
2022/01/23 12:05:17;;;;;;;15.90;12.83;;;8.20;99.90;;;;;;5014306;28;20402;-60
2022/01/23 12:07:45;;;;;;;17.87;13.10;;;8.40;99.90;;;;;;5005474;28;20935;-60
2022/01/23 12:10:52;;;;;;;16.60;13.07;;;8.30;99.90;;;;;;5014784;28;20430;-60
2022/01/23 12:13:33;;;;;;;16.53;13.67;;;7.90;99.90;;;;;;5014263;28;20462;-60
2022/01/23 12:18:43;;;;;;;15.50;12.13;;;7.40;99.90;;;;;;5014534;28;20496;-60
2022/01/23 12:21:29;;;;;;;14.90;12.57;;;7.20;99.90;;;;;;5014867;28;20448;-60
2022/01/23 12:24:07;;;;;;;16.47;12.77;;;7.20;99.90;;;;;;5014789;28;20553;-60
2022/01/23 12:26:33;;;;;;;17.77;14.27;;;7.30;99.90;;;;;;5014647;28;20499;-60
2022/01/23 12:29:20;;;;;;;15.83;13.87;;;7.40;99.90;;;;;;5014408;28;20810;-60
2022/01/23 12:31:46;;;;;;;14.37;12.30;;;7.50;99.90;;;;;;5014857;28;20417;-59
2022/01/23 12:34:12;;;;;;;14.30;11.97;;;7.40;99.90;;;;;;4996358;28;20460;-60
2022/01/23 12:36:40;;;;;;;17.53;13.43;;;7.50;99.90;;;;;;5014490;28;20410;-60
2022/01/23 12:39:08;;;;;;;14.13;12.40;;;8.00;99.90;;;;;;5014703;28;20309;-60
2022/01/23 12:41:51;;;;;;;14.23;11.30;;;8.20;99.90;;;;;;5014171;28;20422;-60
2022/01/23 12:44:23;;;;;;;14.03;12.03;;;8.00;99.90;;;;;;5014683;28;20448;-60
2022/01/23 12:46:51;;;;;;;13.80;11.70;;;8.00;99.90;;;;;;5014591;28;20882;-60
2022/01/23 12:49:17;;;;;;;14.40;10.33;;;8.20;99.90;;;;;;5013116;28;20520;-59
2022/01/23 12:51:43;;;;;;;11.17;9.77;;;8.20;99.90;;;;;;5014275;28;20498;-61
2022/01/23 12:54:11;;;;;;;13.50;10.60;;;8.30;99.90;;;;;;5000645;28;20180;-60
2022/01/23 12:56:44;;;;;;;10.33;8.73;;;8.70;99.90;;;;;;4994421;28;20903;-59
2022/01/23 12:59:19;;;;;;;9.13;7.90;;;8.30;99.90;;;;;;4991192;28;20461;-60
2022/01/23 13:01:47;;;;;;;11.57;9.10;;;8.20;99.90;;;;;;4995272;28;20418;-60
2022/01/23 13:04:14;;;;;;;11.03;8.70;;;8.10;99.90;;;;;;4991898;28;20453;-60
2022/01/23 13:06:55;;;;;;;12.70;11.00;;;8.10;99.90;;;;;;5004769;28;20497;-60
2022/01/23 13:17:39;;;;;;;8.83;7.53;;;7.10;99.90;;;;;;5000210;28;20417;-59
2022/01/23 13:31:07;;;;;;;12.00;9.83;;;8.20;99.90;;;;;;4973555;28;20443;-60
2022/01/23 13:33:33;;;;;;;12.43;10.13;;;8.20;99.90;;;;;;4993839;28;21028;-60
2022/01/23 13:36:01;;;;;;;11.23;9.30;;;8.20;99.90;;;;;;4988553;28;20452;-58
2022/01/23 13:38:32;;;;;;;9.77;8.27;;;8.40;99.90;;;;;;4998796;28;20670;-60
2022/01/23 13:41:05;;;;;;;10.20;7.87;;;8.30;99.90;;;;;;5000072;28;20434;-59
2022/01/23 13:59:53;;;;;;;8.33;6.67;;;7.90;99.90;;;;;;5034468;22;20878;-59
2022/01/23 14:02:45;;;;;;;8.70;5.77;;;7.90;99.90;;;;;;5016824;28;20394;-61
2022/01/23 14:05:20;;;;;;;6.07;4.80;;;8.00;99.90;;;;;;5013635;28;20480;-59
2022/01/23 14:07:51;;;;;;;10.10;6.47;;;7.70;99.90;;;;;;5016898;28;20536;-59
2022/01/23 14:10:32;;;;;;;8.00;5.10;;;7.80;99.90;;;;;;5017269;28;20417;-60
2022/01/23 14:13:16;;;;;;;6.40;4.83;;;7.90;99.90;;;;;;5016846;28;20414;-58
2022/01/23 14:15:47;;;;;;;7.43;4.97;;;7.90;99.90;;;;;;5016603;28;20945;-58
2022/01/23 14:18:22;;;;;;;4.33;3.53;;;7.60;99.90;;;;;;5016877;28;20403;-59
2022/01/23 14:20:57;;;;;;;4.73;4.00;;;7.30;99.90;;;;;;5017076;28;20445;-59
2022/01/23 14:23:23;;;;;;;5.10;4.00;;;7.40;99.90;;;;;;5016642;28;20975;-59
2022/01/23 14:25:53;;;;;;;5.47;4.50;;;7.60;99.90;;;;;;5017008;28;20404;-59
2022/01/23 14:28:22;;;;;;;6.27;4.90;;;7.80;99.90;;;;;;5016619;28;20660;-58
2022/01/23 14:30:54;;;;;;;5.40;4.20;;;7.80;99.90;;;;;;5016476;28;20508;-59
2022/01/23 14:33:28;;;;;;;4.00;3.40;;;7.90;99.90;;;;;;5016093;28;20420;-59
2022/01/23 14:35:54;;;;;;;4.20;3.10;;;8.10;99.90;;;;;;5016591;28;20947;-59
2022/01/23 14:38:27;;;;;;;4.47;3.10;;;8.10;99.90;;;;;;5016353;28;20420;-59
2022/01/23 14:40:54;;;;;;;4.10;3.60;;;8.30;99.90;;;;;;5016350;28;20431;-58
2022/01/23 14:43:20;;;;;;;4.63;3.40;;;8.00;99.90;;;;;;5016515;28;20445;-60
2022/01/23 14:45:49;;;;;;;4.10;3.60;;;7.90;99.90;;;;;;5016302;28;20412;-59
2022/01/23 14:48:15;;;;;;;3.73;3.23;;;7.90;99.90;;;;;;5016032;28;20492;-59
2022/01/23 14:50:52;;;;;;;4.60;4.13;;;7.80;99.90;;;;;;5015776;28;20429;-58
2022/01/23 14:53:20;;;;;;;4.80;4.00;;;7.60;99.90;;;;;;5016367;28;20491;-60
2022/01/23 14:55:52;;;;;;;8.73;3.70;;;7.50;99.90;;;;;;5016046;28;20415;-60
2022/01/23 14:58:19;;;;;;;3.73;3.30;;;7.60;99.90;;;;;;5016333;28;20404;-59
2022/01/23 15:00:46;;;;;;;4.80;3.97;;;7.50;99.90;;;;;;5015397;28;20445;-60
2022/01/23 15:03:12;;;;;;;6.03;4.37;;;7.30;99.90;;;;;;5015669;28;20451;-60
2022/01/23 15:05:39;;;;;;;4.63;3.83;;;7.30;99.90;;;;;;5015903;28;20419;-60
2022/01/23 15:08:07;;;;;;;5.00;3.87;;;7.40;99.90;;;;;;5015826;28;20412;-59
2022/01/23 15:10:35;;;;;;;4.40;3.47;;;7.60;99.90;;;;;;5015985;28;20421;-58
2022/01/23 15:13:00;;;;;;;9.50;3.17;;;7.70;99.90;;;;;;5015419;28;20406;-60
2022/01/23 15:15:27;;;;;;;5.80;4.27;;;7.80;99.90;;;;;;5015564;28;20517;-60
2022/01/23 15:17:53;;;;;;;4.07;3.67;;;7.90;99.90;;;;;;5015675;28;20210;-59
2022/01/23 15:20:19;;;;;;;4.67;3.30;;;7.80;99.90;;;;;;5015400;28;20425;-60
2022/01/23 15:22:45;;;;;;;4.93;4.07;;;7.50;99.90;;;;;;5015751;28;20906;-60
2022/01/23 15:25:12;;;;;;;4.37;3.83;;;7.40;99.90;;;;;;5016085;28;20619;-60
2022/01/23 15:27:39;;;;;;;5.40;3.90;;;7.40;99.90;;;;;;5015439;28;20982;-59
2022/01/23 15:30:11;;;;;;;5.60;3.83;;;7.50;99.90;;;;;;5015085;28;20570;-60
2022/01/23 15:32:36;;;;;;;4.37;3.97;;;7.50;99.90;;;;;;5015724;28;20417;-60
2022/01/23 15:35:04;;;;;;;5.20;4.70;;;7.30;99.90;;;;;;5015385;28;20405;-59
2022/01/23 15:37:30;;;;;;;8.47;5.27;;;7.50;99.90;;;;;;5015046;28;20197;-60
2022/01/23 15:39:56;;;;;;;6.27;4.83;;;7.70;99.90;;;;;;5015373;28;20456;-59
2022/01/23 15:42:22;;;;;;;5.57;4.33;;;7.80;99.90;;;;;;5015222;28;20974;-59
2022/01/23 15:44:47;;;;;;;4.50;3.90;;;7.50;99.90;;;;;;5014781;28;20210;-60
2022/01/23 15:47:13;;;;;;;7.13;4.20;;;7.50;99.90;;;;;;5015065;28;20705;-60
2022/01/23 15:49:39;;;;;;;6.63;4.30;;;7.50;99.90;;;;;;5005652;28;20202;-59
2022/01/23 15:52:05;;;;;;;3.90;3.50;;;7.70;99.90;;;;;;4995468;28;20228;-59
2022/01/23 15:54:34;;;;;;;7.10;4.20;;;7.80;99.90;;;;;;4995712;28;20221;-59
2022/01/23 15:57:00;;;;;;;7.63;5.53;;;7.90;99.90;;;;;;4995275;28;20940;-59
2022/01/23 15:59:25;;;;;;;4.43;4.00;;;7.80;99.90;;;;;;4996349;28;20765;-57
2022/01/23 16:01:52;;;;;;;5.93;4.40;;;7.40;99.90;;;;;;5014575;28;20435;-59
2022/01/23 16:04:18;;;;;;;6.57;5.37;;;7.30;99.90;;;;;;5014446;28;20240;-60
2022/01/23 16:06:45;;;;;;;4.93;4.43;;;7.40;99.90;;;;;;5014852;28;20452;-59
2022/01/23 16:09:11;;;;;;;5.77;4.93;;;7.30;99.90;;;;;;5014861;28;20487;-60
2022/01/23 16:11:37;;;;;;;5.50;4.43;;;6.90;99.90;;;;;;5014554;28;20404;-60
2022/01/23 16:14:03;;;;;;;5.93;4.60;;;6.80;99.90;;;;;;5014848;28;20415;-60
2022/01/23 16:16:29;;;;;;;5.80;4.43;;;6.80;99.90;;;;;;5014111;28;20182;-59
2022/01/23 16:18:56;;;;;;;6.30;4.57;;;6.80;99.90;;;;;;5014571;28;20415;-60
2022/01/23 16:21:23;;;;;;;6.33;4.80;;;6.70;99.90;;;;;;5014314;28;20440;-60
2022/01/23 16:23:48;;;;;;;5.10;4.60;;;6.90;99.90;;;;;;5013923;28;20484;-60
2022/01/23 16:26:16;;;;;;;8.33;6.00;;;7.00;99.90;;;;;;5014325;28;20939;-60